Key West, Florida
Current Conditions -  °F | °C
As of 5:53 AM on Monday 20 Oct 2014 (Local Time) from KEYW Reporting Station
Scattered Clouds Scattered Clouds  
Wind Chill: 80°   Ceiling: Unl
Heat Index: 85°   Visibility: 10mi
Dew Point: 75°   Wind: 10mph
Humidity: 85%   Direction: 140°SE
Pressure: 29.96"   Gusts: NA
Location:  24.55°N, 81.8°W
Report Text: KEYW 200953Z AUTO 14009KT 10SM FEW022 SCT085 27/24 A2996 RMK AO2 SLP145 T02670239 $
Loading
Personal Weather Stations






























Interactive Weather Map New forecast layout! Learn more

10-Day Weather Forecast

Advertisements
Track Severe Weather on mobile